createdAt,value
2022-10-16T00:01:29.666Z,100477.09
2022-10-16T00:06:50.342Z,100503.06
2022-10-16T00:11:52.537Z,100512.72
2022-10-16T00:16:54.707Z,100479.88
2022-10-16T00:21:56.872Z,100538.66
2022-10-16T00:27:17.964Z,100504.44
2022-10-16T00:32:21.116Z,100531.09
2022-10-16T00:37:23.270Z,100514.34
2022-10-16T00:42:25.707Z,100504.78
2022-10-16T00:47:30.903Z,100564.00
2022-10-16T00:52:33.113Z,100532.81
2022-10-16T00:57:53.587Z,100530.97
2022-10-16T01:02:58.240Z,100541.44
2022-10-16T01:08:54.712Z,100565.41
2022-10-16T01:14:00.107Z,100551.41
2022-10-16T01:19:09.794Z,100520.53
2022-10-16T01:24:40.587Z,100551.94
2022-10-16T01:29:54.905Z,100573.56
2022-10-16T01:35:28.643Z,100521.13
2022-10-16T01:40:31.495Z,100565.75
2022-10-16T01:45:52.580Z,100589.31
2022-10-16T01:51:12.000Z,100555.13
2022-10-16T01:56:15.259Z,100581.56
2022-10-16T02:01:20.775Z,100585.75
2022-10-16T02:06:23.951Z,100533.22
2022-10-16T02:11:26.150Z,100478.44
2022-10-16T02:16:44.008Z,100566.25
2022-10-16T02:21:51.671Z,100584.44
2022-10-16T02:27:00.580Z,100582.53
2022-10-16T02:32:05.197Z,100571.63
2022-10-16T02:37:07.976Z,100560.38
2022-10-16T02:42:14.530Z,100567.13
2022-10-16T02:47:16.813Z,100563.50
2022-10-16T02:52:19.010Z,100527.69
2022-10-16T02:57:21.256Z,100556.88
2022-10-16T03:02:23.480Z,100562.66
2022-10-16T03:07:25.766Z,100575.00
2022-10-16T03:12:29.033Z,100538.41
2022-10-16T03:17:31.366Z,100575.66
2022-10-16T03:22:33.536Z,100588.72
2022-10-16T03:27:35.731Z,100563.72
2022-10-16T03:32:37.947Z,100541.63
2022-10-16T03:37:40.158Z,100552.66
2022-10-16T03:42:44.215Z,100619.97
2022-10-16T03:48:05.272Z,100537.94
2022-10-16T03:53:07.500Z,100640.38
2022-10-16T03:58:21.885Z,100603.09
2022-10-16T04:03:24.290Z,100557.94
2022-10-16T04:08:26.542Z,100588.09
2022-10-16T04:13:28.841Z,100589.53
2022-10-16T04:18:49.595Z,100599.91
2022-10-16T04:23:51.743Z,100622.38
2022-10-16T04:28:54.062Z,100612.09
2022-10-16T04:33:56.374Z,100581.72
2022-10-16T04:38:58.615Z,100509.09
2022-10-16T04:44:00.752Z,100605.06
2022-10-16T04:49:03.015Z,100651.84
2022-10-16T04:54:05.235Z,100607.81
2022-10-16T04:59:11.077Z,100602.50
2022-10-16T05:04:13.447Z,100569.75
2022-10-16T05:09:15.791Z,100610.84
2022-10-16T05:14:18.023Z,100632.44
2022-10-16T05:19:27.238Z,100604.22
2022-10-16T05:24:55.899Z,100627.47
2022-10-16T05:30:17.996Z,100642.09
2022-10-16T05:35:21.138Z,100593.34
2022-10-16T05:40:23.278Z,100611.63
2022-10-16T05:45:25.526Z,100605.56
2022-10-16T05:50:28.196Z,100470.47
2022-10-16T05:55:30.428Z,100653.16
2022-10-16T06:00:32.611Z,100658.81
2022-10-16T06:05:34.888Z,100653.91
2022-10-16T06:10:37.153Z,100643.75
2022-10-16T06:15:40.448Z,100632.91
2022-10-16T06:26:06.464Z,100664.72
2022-10-16T06:31:10.590Z,100676.03
2022-10-16T06:36:15.710Z,100669.47
2022-10-16T06:41:19.804Z,100662.25
2022-10-16T06:46:25.605Z,100673.13
2022-10-16T06:51:27.896Z,100646.16
2022-10-16T06:56:35.497Z,100579.09
2022-10-16T07:01:37.669Z,100684.13
2022-10-16T07:06:40.346Z,100656.28
2022-10-16T07:11:42.487Z,100658.94
2022-10-16T07:16:47.476Z,100609.03
2022-10-16T07:21:50.347Z,100591.06
2022-10-16T07:26:52.635Z,100644.16
2022-10-16T07:31:54.772Z,100650.34
2022-10-16T07:36:59.592Z,100663.22
2022-10-16T07:42:01.733Z,100654.84
2022-10-16T07:47:04.092Z,100634.25
2022-10-16T07:52:06.216Z,100654.97
2022-10-16T07:57:08.335Z,100653.84
2022-10-16T08:02:10.486Z,100605.69
2022-10-16T08:07:12.700Z,100630.84
2022-10-16T08:12:14.962Z,100619.00
2022-10-16T08:17:17.120Z,100610.91
2022-10-16T08:22:19.377Z,100618.50
2022-10-16T08:27:21.474Z,100593.53
2022-10-16T08:32:26.707Z,100658.38
2022-10-16T08:37:33.796Z,100642.72
2022-10-16T08:42:55.200Z,100618.22
2022-10-16T08:48:15.505Z,100662.00
2022-10-16T08:53:27.126Z,100640.22
2022-10-16T08:58:31.353Z,100530.34
2022-10-16T09:04:02.394Z,100669.97
2022-10-16T09:09:32.696Z,100609.59
2022-10-16T09:14:47.011Z,100659.06
2022-10-16T09:20:15.472Z,100594.06
2022-10-16T09:25:19.910Z,100589.91
2022-10-16T09:30:23.040Z,100657.13
2022-10-16T09:35:33.582Z,100603.78
2022-10-16T09:40:38.138Z,100640.06
2022-10-16T09:45:40.425Z,100604.00
2022-10-16T09:50:42.623Z,100581.41
2022-10-16T09:55:54.672Z,100556.03
2022-10-16T10:00:56.835Z,100625.88
2022-10-16T10:06:01.977Z,100625.19
2022-10-16T10:11:05.950Z,100599.72
2022-10-16T10:16:08.065Z,100601.78
2022-10-16T10:21:16.149Z,100591.31
2022-10-16T10:26:22.546Z,100609.00
2022-10-16T10:31:28.612Z,100604.88
2022-10-16T10:36:41.836Z,100562.72
2022-10-16T10:41:56.117Z,100619.13
2022-10-16T10:46:59.006Z,100602.59
2022-10-16T10:52:19.753Z,100600.97
2022-10-16T10:57:40.265Z,100584.22
2022-10-16T11:02:56.291Z,100485.69
2022-10-16T11:08:34.185Z,100559.84
2022-10-16T11:13:59.889Z,100578.44
2022-10-16T11:19:14.717Z,100475.44
2022-10-16T11:24:47.511Z,100530.22
2022-10-16T11:30:01.294Z,100581.22
2022-10-16T11:35:42.197Z,100599.84
2022-10-16T11:40:48.825Z,100487.19
2022-10-16T11:45:53.988Z,100560.38
2022-10-16T11:51:04.072Z,100488.19
2022-10-16T11:56:06.767Z,100543.66
2022-10-16T12:01:44.322Z,100587.78
2022-10-16T12:07:04.377Z,100505.91
2022-10-16T12:12:29.179Z,100519.19
2022-10-16T12:17:39.047Z,100532.41
2022-10-16T12:23:05.928Z,100499.97
2022-10-16T12:28:20.316Z,100539.56
2022-10-16T12:33:32.512Z,100500.81
2022-10-16T12:38:34.807Z,100565.09
2022-10-16T12:43:49.047Z,100455.16
2022-10-16T12:49:08.266Z,100564.19
2022-10-16T12:54:20.271Z,100562.50
2022-10-16T12:59:41.339Z,100573.84
2022-10-16T13:04:59.988Z,100576.34
2022-10-16T13:10:14.262Z,100571.94
2022-10-16T13:15:25.824Z,100491.56
2022-10-16T13:21:05.440Z,100570.97
2022-10-16T13:26:22.578Z,100519.75
2022-10-16T13:31:25.805Z,100551.13
2022-10-16T13:36:31.527Z,100480.56
2022-10-16T13:41:33.985Z,100391.72
2022-10-16T13:46:36.201Z,100272.50
2022-10-16T13:51:38.846Z,100438.13
2022-10-16T13:56:43.306Z,100434.44
2022-10-16T14:01:45.915Z,100570.72
2022-10-16T14:06:51.403Z,100526.69
2022-10-16T14:12:00.628Z,100562.59
2022-10-16T14:17:04.010Z,100447.03
2022-10-16T14:22:28.147Z,100483.91
2022-10-16T14:27:37.555Z,100560.22
2022-10-16T14:32:43.248Z,100562.59
2022-10-16T14:37:45.660Z,100401.06
2022-10-16T14:42:48.134Z,100496.06
2022-10-16T14:47:59.404Z,100560.25
2022-10-16T14:53:01.734Z,100415.31
2022-10-16T14:58:03.893Z,100526.25
2022-10-16T15:03:06.072Z,100561.31
2022-10-16T15:08:08.676Z,100427.88
2022-10-16T15:13:15.217Z,100536.22
2022-10-16T15:18:21.448Z,100541.44
2022-10-16T15:28:48.209Z,100521.50
2022-10-16T15:33:59.243Z,100583.09
2022-10-16T15:39:01.813Z,100531.00
2022-10-16T15:44:04.080Z,100559.09
2022-10-16T15:49:06.518Z,100507.09
2022-10-16T15:54:09.573Z,100532.56
2022-10-16T15:59:11.879Z,100510.44
2022-10-16T16:04:42.291Z,100528.88
2022-10-16T16:09:39.939Z,100531.34
2022-10-16T16:14:42.164Z,100553.31
2022-10-16T16:19:44.442Z,100541.63
2022-10-16T16:24:46.834Z,100522.09
2022-10-16T16:29:49.175Z,100529.00
2022-10-16T16:34:51.406Z,100561.69
2022-10-16T16:39:55.750Z,100549.44
2022-10-16T16:44:57.981Z,100526.47
2022-10-16T16:50:00.754Z,100498.97
2022-10-16T16:55:06.374Z,100537.59
2022-10-16T17:00:09.588Z,100561.47
2022-10-16T17:05:14.141Z,100534.94
2022-10-16T17:10:17.827Z,100525.16
2022-10-16T17:15:22.613Z,100542.69
2022-10-16T17:20:38.109Z,100458.84
2022-10-16T17:25:50.612Z,100501.72
2022-10-16T17:31:08.584Z,100548.66
2022-10-16T17:36:12.134Z,100566.91
2022-10-16T17:41:20.229Z,100566.91
2022-10-16T17:46:38.415Z,100566.78
2022-10-16T17:51:47.189Z,100542.78
2022-10-16T17:56:52.440Z,100562.91
2022-10-16T18:01:54.771Z,100500.16
2022-10-16T18:06:57.000Z,100506.16
2022-10-16T18:12:03.370Z,100549.34
2022-10-16T18:17:24.513Z,100530.72
2022-10-16T18:22:31.401Z,100548.25
2022-10-16T18:27:34.208Z,100553.13
2022-10-16T18:32:36.453Z,100574.31
2022-10-16T18:37:47.989Z,100554.84
2022-10-16T18:42:53.490Z,100541.31
2022-10-16T18:48:14.889Z,100532.53
2022-10-16T18:53:17.670Z,100501.53
2022-10-16T18:58:20.056Z,100531.53
2022-10-16T19:03:22.378Z,100529.84
2022-10-16T19:08:24.628Z,100519.28
2022-10-16T19:13:26.838Z,100495.38
2022-10-16T19:18:31.058Z,100533.31
2022-10-16T19:23:56.919Z,100544.78
2022-10-16T19:29:01.942Z,100529.41
2022-10-16T19:34:07.250Z,100540.25
2022-10-16T19:45:00.565Z,100487.03
2022-10-16T19:50:05.594Z,100502.09
2022-10-16T19:55:08.256Z,100513.06
2022-10-16T20:00:29.181Z,100527.88
2022-10-16T20:05:31.375Z,100512.63
2022-10-16T20:10:33.627Z,100545.56
2022-10-16T20:15:37.700Z,100531.38
2022-10-16T20:20:44.770Z,100545.44
2022-10-16T20:25:47.484Z,100542.75
2022-10-16T20:30:50.980Z,100498.34
2022-10-16T20:35:53.293Z,100476.50
2022-10-16T20:40:56.009Z,100512.44
2022-10-16T20:46:03.777Z,100526.56
2022-10-16T20:51:19.207Z,100526.47
2022-10-16T20:56:40.344Z,100510.44
2022-10-16T21:01:42.833Z,100475.81
2022-10-16T21:06:45.638Z,100470.53
2022-10-16T21:12:06.744Z,100502.25
2022-10-16T21:17:27.355Z,100460.66
2022-10-16T21:22:30.885Z,100524.38
2022-10-16T21:27:41.052Z,100495.22
2022-10-16T21:32:43.212Z,100485.16
2022-10-16T21:37:51.544Z,100477.25
2022-10-16T21:42:53.765Z,100482.34
2022-10-16T21:52:58.974Z,100517.31
2022-10-16T21:58:01.374Z,100489.00
2022-10-16T22:03:04.384Z,100457.38
2022-10-16T22:08:06.704Z,100507.72
2022-10-16T22:13:27.455Z,100475.72
2022-10-16T22:18:30.428Z,100490.66
2022-10-16T22:23:32.659Z,100457.09
2022-10-16T22:28:35.311Z,100450.75
2022-10-16T22:33:38.099Z,100453.22
2022-10-16T22:38:40.356Z,100484.25
2022-10-16T22:43:45.010Z,100496.47
2022-10-16T22:48:47.193Z,100467.28
2022-10-16T22:54:08.125Z,100448.66
2022-10-16T22:59:10.510Z,100441.69
2022-10-16T23:04:12.692Z,100414.53
2022-10-16T23:09:14.845Z,100461.09
2022-10-16T23:14:23.425Z,100464.06
2022-10-16T23:19:25.569Z,100404.81
2022-10-16T23:24:27.751Z,100384.56
2022-10-16T23:29:30.065Z,100388.22
2022-10-16T23:34:33.184Z,100438.50
2022-10-16T23:39:35.349Z,100484.31
2022-10-16T23:44:38.724Z,100486.97
2022-10-16T23:49:40.879Z,100399.56
2022-10-16T23:54:43.017Z,100420.00
2022-10-16T23:59:48.269Z,100418.31
